sensor_id;sensor_type;location;lat;lon;timestamp;pressure;altitude;pressure_sealevel;temperature;humidity
11223;BME280;5668;52.012;8.724;2023-04-04T00:02:26;101593.16;;;4.86;63.58
11223;BME280;5668;52.012;8.724;2023-04-04T00:04:53;101586.31;;;4.85;63.61
11223;BME280;5668;52.012;8.724;2023-04-04T00:07:21;101593.22;;;4.83;63.94
11223;BME280;5668;52.012;8.724;2023-04-04T00:09:50;101596.69;;;4.82;64.30
11223;BME280;5668;52.012;8.724;2023-04-04T00:12:17;101589.94;;;4.78;63.94
11223;BME280;5668;52.012;8.724;2023-04-04T00:14:44;101589.09;;;4.78;64.23
11223;BME280;5668;52.012;8.724;2023-04-04T00:17:12;101596.84;;;4.76;64.32
11223;BME280;5668;52.012;8.724;2023-04-04T00:19:39;101594.28;;;4.76;63.83
11223;BME280;5668;52.012;8.724;2023-04-04T00:22:06;101589.22;;;4.73;64.06
11223;BME280;5668;52.012;8.724;2023-04-04T00:24:34;101595.28;;;4.71;64.28
11223;BME280;5668;52.012;8.724;2023-04-04T00:27:02;101603.91;;;4.68;64.56
11223;BME280;5668;52.012;8.724;2023-04-04T00:29:32;101590.28;;;4.64;64.26
11223;BME280;5668;52.012;8.724;2023-04-04T00:31:59;101592.84;;;4.66;64.12
11223;BME280;5668;52.012;8.724;2023-04-04T00:34:31;101592.09;;;4.61;64.61
11223;BME280;5668;52.012;8.724;2023-04-04T00:36:58;101593.84;;;4.59;64.02
11223;BME280;5668;52.012;8.724;2023-04-04T00:39:25;101590.53;;;4.54;64.30
11223;BME280;5668;52.012;8.724;2023-04-04T00:41:53;101594.00;;;4.53;64.61
11223;BME280;5668;52.012;8.724;2023-04-04T00:44:22;101593.13;;;4.54;65.06
11223;BME280;5668;52.012;8.724;2023-04-04T00:46:51;101584.56;;;4.52;65.48
11223;BME280;5668;52.012;8.724;2023-04-04T00:49:18;101577.78;;;4.51;65.16
11223;BME280;5668;52.012;8.724;2023-04-04T00:51:45;101582.94;;;4.49;65.17
11223;BME280;5668;52.012;8.724;2023-04-04T00:54:12;101581.28;;;4.47;64.90
11223;BME280;5668;52.012;8.724;2023-04-04T00:56:40;101579.59;;;4.46;64.98
11223;BME280;5668;52.012;8.724;2023-04-04T00:59:07;101581.34;;;4.44;65.10
11223;BME280;5668;52.012;8.724;2023-04-04T01:01:36;101587.41;;;4.43;65.09
11223;BME280;5668;52.012;8.724;2023-04-04T01:04:04;101587.44;;;4.41;65.15
11223;BME280;5668;52.012;8.724;2023-04-04T01:06:31;101586.59;;;4.41;64.85
11223;BME280;5668;52.012;8.724;2023-04-04T01:08:59;101579.78;;;4.38;64.48
11223;BME280;5668;52.012;8.724;2023-04-04T01:11:26;101579.81;;;4.37;64.99
11223;BME280;5668;52.012;8.724;2023-04-04T01:13:54;101582.38;;;4.37;64.78
11223;BME280;5668;52.012;8.724;2023-04-04T01:16:22;101582.47;;;4.34;64.84
11223;BME280;5668;52.012;8.724;2023-04-04T01:18:51;101582.50;;;4.32;65.10
11223;BME280;5668;52.012;8.724;2023-04-04T01:21:21;101582.53;;;4.31;64.76
11223;BME280;5668;52.012;8.724;2023-04-04T01:23:54;101580.84;;;4.29;64.78
11223;BME280;5668;52.012;8.724;2023-04-04T01:26:26;101581.97;;;4.18;64.01
11223;BME280;5668;52.012;8.724;2023-04-04T01:28:53;101580.25;;;4.18;64.29
11223;BME280;5668;52.012;8.724;2023-04-04T01:31:25;101572.53;;;4.18;65.03
11223;BME280;5668;52.012;8.724;2023-04-04T01:33:57;101577.75;;;4.15;64.80
11223;BME280;5668;52.012;8.724;2023-04-04T01:36:28;101581.31;;;4.10;64.49
11223;BME280;5668;52.012;8.724;2023-04-04T01:39:02;101576.28;;;4.05;64.30
11223;BME280;5668;52.012;8.724;2023-04-04T01:41:33;101571.16;;;4.04;65.34
11223;BME280;5668;52.012;8.724;2023-04-04T01:44:01;101576.31;;;4.04;65.75
11223;BME280;5668;52.012;8.724;2023-04-04T01:46:29;101571.13;;;4.05;65.99
11223;BME280;5668;52.012;8.724;2023-04-04T01:48:56;101567.75;;;4.03;66.03
11223;BME280;5668;52.012;8.724;2023-04-04T01:51:23;101571.19;;;4.02;66.57
11223;BME280;5668;52.012;8.724;2023-04-04T01:53:51;101566.06;;;4.01;66.10
11223;BME280;5668;52.012;8.724;2023-04-04T01:56:18;101558.34;;;4.01;65.52
11223;BME280;5668;52.012;8.724;2023-04-04T01:58:47;101560.97;;;3.99;65.84
11223;BME280;5668;52.012;8.724;2023-04-04T02:01:14;101559.31;;;3.97;66.75
11223;BME280;5668;52.012;8.724;2023-04-04T02:03:41;101561.06;;;3.95;65.96
11223;BME280;5668;52.012;8.724;2023-04-04T02:06:09;101559.34;;;3.95;66.44
11223;BME280;5668;52.012;8.724;2023-04-04T02:08:36;101557.66;;;3.94;65.90
11223;BME280;5668;52.012;8.724;2023-04-04T02:11:04;101562.78;;;3.94;66.51
11223;BME280;5668;52.012;8.724;2023-04-04T02:13:31;101554.25;;;3.92;65.99
11223;BME280;5668;52.012;8.724;2023-04-04T02:16:00;101553.41;;;3.92;66.52
11223;BME280;5668;52.012;8.724;2023-04-04T02:18:27;101553.47;;;3.90;66.22
11223;BME280;5668;52.012;8.724;2023-04-04T02:20:55;101539.81;;;3.88;66.79
11223;BME280;5668;52.012;8.724;2023-04-04T02:23:25;101553.56;;;3.85;66.30
11223;BME280;5668;52.012;8.724;2023-04-04T02:25:52;101545.84;;;3.85;66.48
11223;BME280;5668;52.012;8.724;2023-04-04T02:28:19;101549.34;;;3.83;66.53
11223;BME280;5668;52.012;8.724;2023-04-04T02:30:47;101557.88;;;3.83;65.99
11223;BME280;5668;52.012;8.724;2023-04-04T02:33:16;101553.66;;;3.82;66.89
11223;BME280;5668;52.012;8.724;2023-04-04T02:35:43;101553.69;;;3.79;66.40
11223;BME280;5668;52.012;8.724;2023-04-04T02:38:10;101558.00;;;3.79;66.28
11223;BME280;5668;52.012;8.724;2023-04-04T02:40:38;101554.59;;;3.77;67.17
11223;BME280;5668;52.012;8.724;2023-04-04T02:43:07;101543.47;;;3.76;66.72
11223;BME280;5668;52.012;8.724;2023-04-04T02:45:34;101545.22;;;3.76;66.29
11223;BME280;5668;52.012;8.724;2023-04-04T02:48:01;101546.09;;;3.75;67.33
11223;BME280;5668;52.012;8.724;2023-04-04T02:50:30;101550.38;;;3.74;66.44
11223;BME280;5668;52.012;8.724;2023-04-04T02:52:59;101546.16;;;3.72;66.66
11223;BME280;5668;52.012;8.724;2023-04-04T02:55:27;101541.91;;;3.69;66.57
11223;BME280;5668;52.012;8.724;2023-04-04T02:57:55;101539.41;;;3.68;67.07
11223;BME280;5668;52.012;8.724;2023-04-04T03:00:23;101540.28;;;3.67;66.71
11223;BME280;5668;52.012;8.724;2023-04-04T03:02:53;101531.72;;;3.66;66.85
11223;BME280;5668;52.012;8.724;2023-04-04T03:05:22;101535.16;;;3.65;66.92
11223;BME280;5668;52.012;8.724;2023-04-04T03:07:54;101530.91;;;3.64;67.34
11223;BME280;5668;52.012;8.724;2023-04-04T03:10:22;101520.66;;;3.63;67.32
11223;BME280;5668;52.012;8.724;2023-04-04T03:12:50;101529.22;;;3.62;67.25
11223;BME280;5668;52.012;8.724;2023-04-04T03:15:17;101523.31;;;3.60;67.37
11223;BME280;5668;52.012;8.724;2023-04-04T03:17:45;101515.66;;;3.57;67.78
11223;BME280;5668;52.012;8.724;2023-04-04T03:20:13;101519.09;;;3.56;67.76
11223;BME280;5668;52.012;8.724;2023-04-04T03:22:41;101513.94;;;3.56;67.14
11223;BME280;5668;52.012;8.724;2023-04-04T03:25:10;101512.25;;;3.55;67.19
11223;BME280;5668;52.012;8.724;2023-04-04T03:27:37;101514.88;;;3.53;67.13
11223;BME280;5668;52.012;8.724;2023-04-04T03:30:06;101513.19;;;3.52;67.82
11223;BME280;5668;52.012;8.724;2023-04-04T03:32:35;101509.78;;;3.50;67.89
11223;BME280;5668;52.012;8.724;2023-04-04T03:35:04;101502.13;;;3.48;67.81
11223;BME280;5668;52.012;8.724;2023-04-04T03:37:32;101510.69;;;3.47;67.41
11223;BME280;5668;52.012;8.724;2023-04-04T03:39:59;101504.72;;;3.47;67.41
11223;BME280;5668;52.012;8.724;2023-04-04T03:42:32;101506.44;;;3.46;67.36
11223;BME280;5668;52.012;8.724;2023-04-04T03:45:00;101504.78;;;3.44;67.40
11223;BME280;5668;52.012;8.724;2023-04-04T03:47:28;101493.66;;;3.43;67.87
11223;BME280;5668;52.012;8.724;2023-04-04T03:49:56;101497.13;;;3.42;67.54
11223;BME280;5668;52.012;8.724;2023-04-04T03:52:23;101499.72;;;3.41;67.30
11223;BME280;5668;52.012;8.724;2023-04-04T03:54:50;101495.47;;;3.38;67.46
11223;BME280;5668;52.012;8.724;2023-04-04T03:57:18;101497.16;;;3.39;67.25
11223;BME280;5668;52.012;8.724;2023-04-04T03:59:46;101503.16;;;3.40;67.80
11223;BME280;5668;52.012;8.724;2023-04-04T04:02:13;101493.72;;;3.40;67.72
11223;BME280;5668;52.012;8.724;2023-04-04T04:04:41;101499.78;;;3.38;66.83
11223;BME280;5668;52.012;8.724;2023-04-04T04:07:09;101497.28;;;3.35;67.45
11223;BME280;5668;52.012;8.724;2023-04-04T04:09:36;101500.75;;;3.32;68.19
11223;BME280;5668;52.012;8.724;2023-04-04T04:12:04;101495.69;;;3.29;68.63
11223;BME280;5668;52.012;8.724;2023-04-04T04:14:31;101495.72;;;3.28;68.85
11223;BME280;5668;52.012;8.724;2023-04-04T04:17:00;101494.88;;;3.27;69.02
11223;BME280;5668;52.012;8.724;2023-04-04T04:19:27;101494.88;;;3.27;68.41
11223;BME280;5668;52.012;8.724;2023-04-04T04:21:54;101492.28;;;3.27;68.55
11223;BME280;5668;52.012;8.724;2023-04-04T04:24:21;101494.88;;;3.26;68.38
11223;BME280;5668;52.012;8.724;2023-04-04T04:26:49;101492.31;;;3.26;68.70
11223;BME280;5668;52.012;8.724;2023-04-04T04:29:16;101497.47;;;3.24;68.86
11223;BME280;5668;52.012;8.724;2023-04-04T04:31:43;101499.25;;;3.22;68.38
11223;BME280;5668;52.012;8.724;2023-04-04T04:34:12;101497.53;;;3.23;68.53
11223;BME280;5668;52.012;8.724;2023-04-04T04:36:40;101498.44;;;3.20;69.66
11223;BME280;5668;52.012;8.724;2023-04-04T04:39:07;101504.44;;;3.19;68.77
11223;BME280;5668;52.012;8.724;2023-04-04T04:41:35;101502.75;;;3.18;69.87
11223;BME280;5668;52.012;8.724;2023-04-04T04:44:03;101499.34;;;3.18;69.91
11223;BME280;5668;52.012;8.724;2023-04-04T04:46:30;101498.50;;;3.17;69.12
11223;BME280;5668;52.012;8.724;2023-04-04T04:48:58;101504.50;;;3.16;69.71
11223;BME280;5668;52.012;8.724;2023-04-04T04:51:27;101497.69;;;3.15;69.10
11223;BME280;5668;52.012;8.724;2023-04-04T04:53:54;101506.28;;;3.14;70.41
11223;BME280;5668;52.012;8.724;2023-04-04T04:56:21;101501.97;;;3.15;69.58
11223;BME280;5668;52.012;8.724;2023-04-04T04:58:48;101496.00;;;3.14;69.70
11223;BME280;5668;52.012;8.724;2023-04-04T05:01:16;101506.31;;;3.11;69.81
11223;BME280;5668;52.012;8.724;2023-04-04T05:03:43;101502.91;;;3.10;69.84
11223;BME280;5668;52.012;8.724;2023-04-04T05:06:10;101500.34;;;3.09;70.71
11223;BME280;5668;52.012;8.724;2023-04-04T05:08:39;101503.84;;;3.08;70.28
11223;BME280;5668;52.012;8.724;2023-04-04T05:11:06;101503.00;;;3.06;69.71
11223;BME280;5668;52.012;8.724;2023-04-04T05:13:33;101498.75;;;3.05;69.88
11223;BME280;5668;52.012;8.724;2023-04-04T05:16:01;101503.88;;;3.05;70.30
11223;BME280;5668;52.012;8.724;2023-04-04T05:18:28;101509.03;;;3.03;70.62
11223;BME280;5668;52.012;8.724;2023-04-04T05:20:55;101506.50;;;3.02;70.31
11223;BME280;5668;52.012;8.724;2023-04-04T05:23:23;101510.78;;;3.01;69.56
11223;BME280;5668;52.012;8.724;2023-04-04T05:25:52;101511.63;;;3.02;69.97
11223;BME280;5668;52.012;8.724;2023-04-04T05:28:20;101507.44;;;2.98;70.55
11223;BME280;5668;52.012;8.724;2023-04-04T05:30:48;101516.00;;;2.98;70.62
11223;BME280;5668;52.012;8.724;2023-04-04T05:33:16;101517.69;;;2.99;70.58
11223;BME280;5668;52.012;8.724;2023-04-04T05:35:43;101522.03;;;2.96;70.12
11223;BME280;5668;52.012;8.724;2023-04-04T05:38:10;101521.16;;;2.97;70.69
11223;BME280;5668;52.012;8.724;2023-04-04T05:40:38;101528.84;;;2.97;70.66
11223;BME280;5668;52.012;8.724;2023-04-04T05:43:06;101526.31;;;2.95;69.85
11223;BME280;5668;52.012;8.724;2023-04-04T05:45:34;101528.84;;;2.97;70.77
11223;BME280;5668;52.012;8.724;2023-04-04T05:48:01;101525.47;;;2.95;71.01
11223;BME280;5668;52.012;8.724;2023-04-04T05:50:29;101533.16;;;2.95;70.60
11223;BME280;5668;52.012;8.724;2023-04-04T05:52:56;101525.44;;;2.96;71.03
11223;BME280;5668;52.012;8.724;2023-04-04T05:55:23;101517.75;;;2.95;71.37
11223;BME280;5668;52.012;8.724;2023-04-04T05:57:51;101528.03;;;2.95;70.79
11223;BME280;5668;52.012;8.724;2023-04-04T06:00:20;101534.00;;;2.97;71.04
11223;BME280;5668;52.012;8.724;2023-04-04T06:02:47;101534.00;;;2.95;71.78
11223;BME280;5668;52.012;8.724;2023-04-04T06:05:15;101545.09;;;2.97;71.92
11223;BME280;5668;52.012;8.724;2023-04-04T06:07:42;101536.53;;;2.98;72.20
11223;BME280;5668;52.012;8.724;2023-04-04T06:10:11;101539.94;;;2.99;72.44
11223;BME280;5668;52.012;8.724;2023-04-04T06:12:38;101541.56;;;3.03;71.53
11223;BME280;5668;52.012;8.724;2023-04-04T06:15:07;101552.66;;;3.05;72.41
11223;BME280;5668;52.012;8.724;2023-04-04T06:17:35;101551.78;;;3.07;71.52
11223;BME280;5668;52.012;8.724;2023-04-04T06:20:04;101555.19;;;3.08;71.61
11223;BME280;5668;52.012;8.724;2023-04-04T06:22:34;101561.13;;;3.10;72.12
11223;BME280;5668;52.012;8.724;2023-04-04T06:25:01;101558.53;;;3.11;72.34
11223;BME280;5668;52.012;8.724;2023-04-04T06:27:29;101557.63;;;3.14;73.07
11223;BME280;5668;52.012;8.724;2023-04-04T06:29:56;101560.09;;;3.19;72.31
11223;BME280;5668;52.012;8.724;2023-04-04T06:32:23;101560.91;;;3.22;72.83
11223;BME280;5668;52.012;8.724;2023-04-04T06:34:52;101562.63;;;3.22;72.76
11223;BME280;5668;52.012;8.724;2023-04-04T06:37:19;101557.41;;;3.25;73.27
11223;BME280;5668;52.012;8.724;2023-04-04T06:39:47;101559.06;;;3.29;73.55
11223;BME280;5668;52.012;8.724;2023-04-04T06:42:14;101567.53;;;3.32;73.84
11223;BME280;5668;52.012;8.724;2023-04-04T06:44:41;101564.88;;;3.37;74.97
11223;BME280;5668;52.012;8.724;2023-04-04T06:47:08;101568.22;;;3.40;74.52
11223;BME280;5668;52.012;8.724;2023-04-04T06:49:36;101568.19;;;3.43;74.25
11223;BME280;5668;52.012;8.724;2023-04-04T06:52:05;101574.94;;;3.47;74.46
11223;BME280;5668;52.012;8.724;2023-04-04T06:54:32;101573.06;;;3.54;74.99
11223;BME280;5668;52.012;8.724;2023-04-04T06:56:59;101575.53;;;3.60;74.75
11223;BME280;5668;52.012;8.724;2023-04-04T06:59:27;101570.28;;;3.65;75.48
11223;BME280;5668;52.012;8.724;2023-04-04T07:01:55;101573.66;;;3.68;74.84
11223;BME280;5668;52.012;8.724;2023-04-04T07:04:22;101574.41;;;3.73;74.64
11223;BME280;5668;52.012;8.724;2023-04-04T07:06:51;101572.56;;;3.78;74.76
11223;BME280;5668;52.012;8.724;2023-04-04T07:09:19;101567.38;;;3.81;74.79
11223;BME280;5668;52.012;8.724;2023-04-04T07:11:46;101561.25;;;3.87;74.00
11223;BME280;5668;52.012;8.724;2023-04-04T07:14:14;101568.84;;;3.92;74.14
11223;BME280;5668;52.012;8.724;2023-04-04T07:16:41;101562.75;;;3.97;74.29
11223;BME280;5668;52.012;8.724;2023-04-04T07:19:08;101561.72;;;4.04;74.17
11223;BME280;5668;52.012;8.724;2023-04-04T07:21:35;101561.56;;;4.10;74.57
11223;BME280;5668;52.012;8.724;2023-04-04T07:24:03;101562.25;;;4.18;75.10
11223;BME280;5668;52.012;8.724;2023-04-04T07:26:32;101560.25;;;4.29;75.26
11223;BME280;5668;52.012;8.724;2023-04-04T07:29:00;101567.75;;;4.39;76.01
11223;BME280;5668;52.012;8.724;2023-04-04T07:31:27;101554.66;;;4.48;75.67
11223;BME280;5668;52.012;8.724;2023-04-04T07:33:54;101557.06;;;4.55;76.44
11223;BME280;5668;52.012;8.724;2023-04-04T07:36:22;101562.81;;;4.65;76.46
11223;BME280;5668;52.012;8.724;2023-04-04T07:38:49;101557.47;;;4.73;76.66
11223;BME280;5668;52.012;8.724;2023-04-04T07:41:16;101560.63;;;4.82;76.58
11223;BME280;5668;52.012;8.724;2023-04-04T07:43:45;101556.94;;;4.92;76.78
11223;BME280;5668;52.012;8.724;2023-04-04T07:46:12;101549.03;;;5.00;76.23
11223;BME280;5668;52.012;8.724;2023-04-04T07:48:39;101556.47;;;5.11;75.35
11223;BME280;5668;52.012;8.724;2023-04-04T07:51:07;101551.22;;;5.14;75.26
11223;BME280;5668;52.012;8.724;2023-04-04T07:53:34;101549.28;;;5.22;75.26
11223;BME280;5668;52.012;8.724;2023-04-04T07:56:02;101550.72;;;5.32;74.27
11223;BME280;5668;52.012;8.724;2023-04-04T07:58:31;101552.31;;;5.36;72.48
11223;BME280;5668;52.012;8.724;2023-04-04T08:01:00;101558.06;;;5.45;71.10
11223;BME280;5668;52.012;8.724;2023-04-04T08:03:28;101551.03;;;5.51;68.92
11223;BME280;5668;52.012;8.724;2023-04-04T08:05:55;101549.91;;;5.59;67.97
11223;BME280;5668;52.012;8.724;2023-04-04T08:08:23;101549.53;;;5.71;67.61
11223;BME280;5668;52.012;8.724;2023-04-04T08:10:50;101550.97;;;5.81;67.29
11223;BME280;5668;52.012;8.724;2023-04-04T08:13:17;101549.03;;;5.90;67.40
11223;BME280;5668;52.012;8.724;2023-04-04T08:15:44;101549.59;;;5.99;67.31
11223;BME280;5668;52.012;8.724;2023-04-04T08:18:13;101546.88;;;6.04;67.67
11223;BME280;5668;52.012;8.724;2023-04-04T08:20:40;101540.56;;;6.12;67.36
11223;BME280;5668;52.012;8.724;2023-04-04T08:23:08;101545.28;;;6.26;67.09
11223;BME280;5668;52.012;8.724;2023-04-04T08:25:35;101549.47;;;6.30;66.03
11223;BME280;5668;52.012;8.724;2023-04-04T08:28:02;101546.66;;;6.38;66.35
11223;BME280;5668;52.012;8.724;2023-04-04T08:30:30;101549.75;;;6.47;65.47
11223;BME280;5668;52.012;8.724;2023-04-04T08:32:57;101552.16;;;6.53;65.35
11223;BME280;5668;52.012;8.724;2023-04-04T08:35:26;101545.09;;;6.58;63.97
11223;BME280;5668;52.012;8.724;2023-04-04T08:37:53;101542.22;;;6.68;62.91
11223;BME280;5668;52.012;8.724;2023-04-04T08:40:21;101540.22;;;6.76;62.47
11223;BME280;5668;52.012;8.724;2023-04-04T08:42:50;101541.69;;;6.83;61.61
11223;BME280;5668;52.012;8.724;2023-04-04T08:45:18;101546.63;;;6.89;60.02
11223;BME280;5668;52.012;8.724;2023-04-04T08:47:48;101535.97;;;6.98;59.67
11223;BME280;5668;52.012;8.724;2023-04-04T08:50:19;101537.22;;;7.11;58.26
11223;BME280;5668;52.012;8.724;2023-04-04T08:52:49;101539.50;;;7.20;57.74
11223;BME280;5668;52.012;8.724;2023-04-04T08:55:17;101540.72;;;7.33;57.17
11223;BME280;5668;52.012;8.724;2023-04-04T08:57:45;101536.16;;;7.40;57.41
11223;BME280;5668;52.012;8.724;2023-04-04T09:00:14;101534.09;;;7.50;57.38
11223;BME280;5668;52.012;8.724;2023-04-04T09:02:48;101536.19;;;7.62;56.61
11223;BME280;5668;52.012;8.724;2023-04-04T09:05:17;101537.66;;;7.69;55.92
11223;BME280;5668;52.012;8.724;2023-04-04T09:07:45;101538.94;;;7.81;54.70
11223;BME280;5668;52.012;8.724;2023-04-04T09:10:15;101535.16;;;7.89;53.48
11223;BME280;5668;52.012;8.724;2023-04-04T09:12:45;101542.84;;;7.91;53.99
11223;BME280;5668;52.012;8.724;2023-04-04T09:15:13;101543.44;;;7.97;53.74
11223;BME280;5668;52.012;8.724;2023-04-04T09:17:41;101540.63;;;8.03;53.14
11223;BME280;5668;52.012;8.724;2023-04-04T09:20:37;101534.06;;;8.16;52.26
11223;BME280;5668;52.012;8.724;2023-04-04T09:23:07;101533.81;;;8.23;53.37
11223;BME280;5668;52.012;8.724;2023-04-04T09:25:36;101527.44;;;8.31;52.92
11223;BME280;5668;52.012;8.724;2023-04-04T09:28:03;101527.91;;;8.41;52.58
11223;BME280;5668;52.012;8.724;2023-04-04T09:30:32;101522.34;;;8.50;52.65
11223;BME280;5668;52.012;8.724;2023-04-04T09:33:01;101527.13;;;8.59;53.43
11223;BME280;5668;52.012;8.724;2023-04-04T09:35:32;101523.25;;;8.69;52.88
11223;BME280;5668;52.012;8.724;2023-04-04T09:37:59;101527.28;;;8.76;52.58
11223;BME280;5668;52.012;8.724;2023-04-04T09:40:28;101520.66;;;8.89;52.90
11223;BME280;5668;52.012;8.724;2023-04-04T09:42:59;101512.69;;;8.94;51.55
11223;BME280;5668;52.012;8.724;2023-04-04T09:45:28;101519.13;;;9.04;51.16
11223;BME280;5668;52.012;8.724;2023-04-04T09:47:56;101515.16;;;9.16;51.72
11223;BME280;5668;52.012;8.724;2023-04-04T09:50:24;101510.38;;;9.25;52.21
11223;BME280;5668;52.012;8.724;2023-04-04T09:52:56;101512.63;;;9.33;51.77
11223;BME280;5668;52.012;8.724;2023-04-04T09:55:31;101512.09;;;9.45;51.63
11223;BME280;5668;52.012;8.724;2023-04-04T09:58:10;101504.88;;;9.52;51.51
11223;BME280;5668;52.012;8.724;2023-04-04T10:00:40;101512.31;;;9.59;51.83
11223;BME280;5668;52.012;8.724;2023-04-04T10:03:11;101505.63;;;9.73;50.72
11223;BME280;5668;52.012;8.724;2023-04-04T10:05:39;101509.59;;;9.80;50.22
11223;BME280;5668;52.012;8.724;2023-04-04T10:08:13;101498.00;;;9.87;50.00
11223;BME280;5668;52.012;8.724;2023-04-04T10:10:48;101500.31;;;9.93;50.02
11223;BME280;5668;52.012;8.724;2023-04-04T10:13:23;101495.31;;;10.07;49.97
11223;BME280;5668;52.012;8.724;2023-04-04T10:15:53;101497.44;;;10.16;50.03
11223;BME280;5668;52.012;8.724;2023-04-04T10:18:23;101499.69;;;10.24;49.99
11223;BME280;5668;52.012;8.724;2023-04-04T10:20:51;101490.69;;;10.31;49.10
11223;BME280;5668;52.012;8.724;2023-04-04T10:23:20;101491.00;;;10.42;48.53
11223;BME280;5668;52.012;8.724;2023-04-04T10:25:48;101496.88;;;10.45;47.50
11223;BME280;5668;52.012;8.724;2023-04-04T10:28:16;101495.94;;;10.46;48.55
11223;BME280;5668;52.012;8.724;2023-04-04T10:30:54;101488.69;;;10.53;47.42
11223;BME280;5668;52.012;8.724;2023-04-04T10:33:29;101480.50;;;10.61;47.40
11223;BME280;5668;52.012;8.724;2023-04-04T10:36:00;101475.59;;;10.72;47.22
11223;BME280;5668;52.012;8.724;2023-04-04T10:38:32;101477.72;;;10.81;47.60
11223;BME280;5668;52.012;8.724;2023-04-04T10:41:02;101472.97;;;10.89;47.00
11223;BME280;5668;52.012;8.724;2023-04-04T10:43:33;101470.97;;;10.94;46.04
11223;BME280;5668;52.012;8.724;2023-04-04T10:46:10;101472.31;;;11.01;46.76
11223;BME280;5668;52.012;8.724;2023-04-04T10:48:39;101461.56;;;11.07;45.81
11223;BME280;5668;52.012;8.724;2023-04-04T10:51:07;101463.13;;;11.11;46.08
11223;BME280;5668;52.012;8.724;2023-04-04T10:53:38;101467.00;;;11.20;46.30
11223;BME280;5668;52.012;8.724;2023-04-04T10:56:07;101461.59;;;11.23;44.65
11223;BME280;5668;52.012;8.724;2023-04-04T10:58:39;101457.09;;;11.27;45.13
11223;BME280;5668;52.012;8.724;2023-04-04T11:01:08;101456.56;;;11.36;45.49
11223;BME280;5668;52.012;8.724;2023-04-04T11:07:10;101444.31;;;11.53;45.94
11223;BME280;5668;52.012;8.724;2023-04-04T11:09:59;101444.81;;;11.60;45.47
11223;BME280;5668;52.012;8.724;2023-04-04T11:12:29;101440.94;;;11.67;45.10
11223;BME280;5668;52.012;8.724;2023-04-04T11:15:08;101437.91;;;11.75;45.03
11223;BME280;5668;52.012;8.724;2023-04-04T11:17:58;101432.56;;;11.78;43.05
11223;BME280;5668;52.012;8.724;2023-04-04T11:20:31;101426.91;;;11.85;44.09
11223;BME280;5668;52.012;8.724;2023-04-04T11:23:07;101423.94;;;11.91;44.65
11223;BME280;5668;52.012;8.724;2023-04-04T11:25:37;101433.84;;;12.00;43.79
11223;BME280;5668;52.012;8.724;2023-04-04T11:28:23;101431.72;;;12.07;44.16
11223;BME280;5668;52.012;8.724;2023-04-04T11:31:22;101428.28;;;12.07;44.22
11223;BME280;5668;52.012;8.724;2023-04-04T11:33:59;101418.31;;;12.13;43.45
11223;BME280;5668;52.012;8.724;2023-04-04T11:36:47;101419.63;;;12.06;42.75
11223;BME280;5668;52.012;8.724;2023-04-04T11:39:23;101414.66;;;11.87;41.15
11223;BME280;5668;52.012;8.724;2023-04-04T11:41:53;101410.72;;;11.64;41.89
11223;BME280;5668;52.012;8.724;2023-04-04T11:44:23;101401.88;;;11.67;43.05
11223;BME280;5668;52.012;8.724;2023-04-04T11:47:01;101405.84;;;11.74;43.11
11223;BME280;5668;52.012;8.724;2023-04-04T11:49:33;101398.06;;;11.88;43.59
11223;BME280;5668;52.012;8.724;2023-04-04T11:52:04;101390.66;;;11.96;43.17
11223;BME280;5668;52.012;8.724;2023-04-04T11:54:32;101397.09;;;12.05;42.34
11223;BME280;5668;52.012;8.724;2023-04-04T11:56:59;101388.66;;;12.16;42.57
11223;BME280;5668;52.012;8.724;2023-04-04T11:59:28;101389.69;;;12.27;40.42
11223;BME280;5668;52.012;8.724;2023-04-04T12:01:56;101379.00;;;12.32;40.96
11223;BME280;5668;52.012;8.724;2023-04-04T12:04:25;101376.78;;;12.40;40.13
11223;BME280;5668;52.012;8.724;2023-04-04T12:06:54;101384.59;;;12.40;40.51
11223;BME280;5668;52.012;8.724;2023-04-04T12:09:25;101376.41;;;12.46;41.25
11223;BME280;5668;52.012;8.724;2023-04-04T12:11:54;101384.69;;;12.53;40.86
11223;BME280;5668;52.012;8.724;2023-04-04T12:14:23;101377.97;;;12.63;41.64
11223;BME280;5668;52.012;8.724;2023-04-04T12:16:52;101373.78;;;12.74;41.97
11223;BME280;5668;52.012;8.724;2023-04-04T12:19:21;101369.75;;;12.83;40.75
11223;BME280;5668;52.012;8.724;2023-04-04T12:21:49;101372.63;;;12.93;40.74
11223;BME280;5668;52.012;8.724;2023-04-04T12:24:19;101363.84;;;12.94;40.81
11223;BME280;5668;52.012;8.724;2023-04-04T12:26:48;101361.59;;;13.02;41.56
11223;BME280;5668;52.012;8.724;2023-04-04T12:29:17;101361.59;;;13.02;40.18
11223;BME280;5668;52.012;8.724;2023-04-04T12:31:47;101364.59;;;12.96;39.92
11223;BME280;5668;52.012;8.724;2023-04-04T12:34:20;101361.91;;;12.97;40.52
11223;BME280;5668;52.012;8.724;2023-04-04T12:36:48;101357.53;;;12.98;39.64
11223;BME280;5668;52.012;8.724;2023-04-04T12:39:20;101357.66;;;13.09;41.20
11223;BME280;5668;52.012;8.724;2023-04-04T12:41:50;101352.13;;;13.15;40.55
11223;BME280;5668;52.012;8.724;2023-04-04T12:44:26;101349.38;;;13.02;39.19
11223;BME280;5668;52.012;8.724;2023-04-04T12:46:56;101340.53;;;13.05;40.74
11223;BME280;5668;52.012;8.724;2023-04-04T12:49:27;101341.66;;;13.15;40.79
11223;BME280;5668;52.012;8.724;2023-04-04T12:51:55;101340.19;;;12.97;40.29
11223;BME280;5668;52.012;8.724;2023-04-04T12:54:30;101329.56;;;13.00;40.50
11223;BME280;5668;52.012;8.724;2023-04-04T12:57:00;101328.72;;;12.99;38.94
11223;BME280;5668;52.012;8.724;2023-04-04T12:59:30;101325.50;;;13.08;41.06
11223;BME280;5668;52.012;8.724;2023-04-04T13:02:00;101317.03;;;13.19;41.15
11223;BME280;5668;52.012;8.724;2023-04-04T13:04:27;101318.72;;;13.20;39.41
11223;BME280;5668;52.012;8.724;2023-04-04T13:06:55;101320.94;;;13.12;40.18
11223;BME280;5668;52.012;8.724;2023-04-04T13:09:23;101316.50;;;13.14;39.90
11223;BME280;5668;52.012;8.724;2023-04-04T13:12:03;101312.22;;;13.13;40.05
11223;BME280;5668;52.012;8.724;2023-04-04T13:14:58;101308.69;;;13.14;40.00
11223;BME280;5668;52.012;8.724;2023-04-04T13:17:27;101297.19;;;13.16;39.86
11223;BME280;5668;52.012;8.724;2023-04-04T13:20:05;101293.22;;;13.24;39.96
11223;BME280;5668;52.012;8.724;2023-04-04T13:22:35;101286.38;;;13.23;39.16